Latest Weather Observations for Nullo Mountain

IDN60801

Issued at 8:32 am EST Sunday 31 May 2015 (issued every 30 minutes, with the page automatically refreshed every 10 minutes)

About weather observations | Map of weather stations | Latest weather observations for NSW | Other Formats
Station Details ID: 062100 Name: NULLO MOUNTAIN AWS Lat: -32.72 Lon: 150.23 Height: 1130.0 m
Data from the previous 72 hours. | See also: Recent months at Nullo Mountain
Date/Time
EST
Temp
°C
App
Temp
°C
Dew
Point
Rel
Hum
%
Delta-T
°C
Wind Press
QNH
hPa
Press
MSL
hPa
Rain
since 9 am
mm
Dir
 
Spd
km/h
Gust
km/h
Spd
kts
Gust
kts
31/08:30am 7.1 4.7 7.1 100 0.0 W 9 17 5 9 - - 3.8
31/08:00am 7.3 5.3 7.3 100 0.0 W 7 17 4 9 - - 3.2
31/07:30am 7.5 5.6 7.5 100 0.0 W 7 11 4 6 - - 2.8
31/07:00am 7.6 5.9 7.6 100 0.0 W 6 11 3 6 - - 2.8
31/06:30am 7.6 6.3 7.6 100 0.0 NW 4 7 2 4 - - 2.6
31/06:00am 7.6 6.3 7.6 100 0.0 WNW 4 7 2 4 - - 2.6
31/05:30am 7.6 5.7 7.6 100 0.0 WNW 7 15 4 8 - - 1.6
31/05:00am 7.5 5.8 7.4 99 0.0 WNW 6 9 3 5 - - 1.4
31/04:30am 7.6 6.3 7.5 99 0.1 WNW 4 9 2 5 - - 1.2
31/04:00am 7.7 6.0 7.6 99 0.1 W 6 9 3 5 - - 0.8
31/03:30am 7.5 5.8 7.4 99 0.0 WNW 6 9 3 5 - - 0.2
31/03:00am 7.3 6.3 7.2 99 0.0 W 2 4 1 2 - - 0.0
31/02:30am 7.6 5.9 7.6 100 0.0 WNW 6 9 3 5 - - 0.0
31/02:00am 7.8 6.2 7.8 100 0.0 WSW 6 11 3 6 - - 0.0
31/01:30am 7.8 6.5 7.7 99 0.1 WNW 4 7 2 4 - - 0.0
31/01:00am 7.9 6.6 7.8 99 0.1 WNW 4 9 2 5 - - 0.0
31/12:30am 7.9 6.3 7.8 99 0.1 WNW 6 9 3 5 - - 0.0
31/12:00am 7.9 6.6 7.8 99 0.1 WNW 4 7 2 4 - - 0.0
 
Date/Time
EST
Temp
°C
App
Temp
°C
Dew
Point
Rel
Hum
%
Delta-T
°C
Wind Press
QNH
hPa
Press
MSL
hPa
Rain
since 9 am
mm
Dir
 
Spd
km/h
Gust
km/h
Spd
kts
Gust
kts
30/11:30pm 8.0 6.8 7.9 99 0.1 WNW 4 7 2 4 - - 0.0
30/11:00pm 8.0 6.4 7.9 99 0.1 WNW 6 9 3 5 - - 0.0
30/10:30pm 7.7 6.0 7.6 99 0.1 WNW 6 9 3 5 - - 0.0
30/10:00pm 7.5 6.1 7.2 98 0.1 WNW 4 6 2 3 - - 0.0
30/09:30pm 7.9 6.2 7.6 98 0.2 W 6 7 3 4 - - 0.0
30/09:00pm 8.0 6.3 7.4 96 0.3 WSW 6 11 3 6 - - 0.0
30/08:30pm 8.3 6.6 7.7 96 0.3 W 6 9 3 5 - - 0.0
30/08:00pm 8.4 6.5 7.6 95 0.4 W 7 11 4 6 - - 0.0
30/07:30pm 8.4 6.5 7.5 94 0.5 W 7 17 4 9 - - 0.0
30/07:00pm 8.5 6.6 7.6 94 0.5 W 7 15 4 8 - - 0.0
30/06:30pm 8.7 6.9 7.8 94 0.5 W 7 13 4 7 - - 0.0
30/06:00pm 8.8 6.9 7.7 93 0.6 WNW 7 13 4 7 - - 0.0
30/05:30pm 8.8 7.1 7.7 93 0.6 WNW 6 13 3 7 - - 0.0
30/05:00pm 8.8 6.9 7.6 92 0.6 WNW 7 13 4 7 - - 0.0
30/04:30pm 9.3 7.4 7.4 88 1.0 WNW 7 15 4 8 - - 0.0
30/04:00pm 9.9 7.7 7.7 86 1.1 NW 9 15 5 8 - - 0.0
30/03:30pm 10.2 8.3 7.6 84 1.3 WNW 7 17 4 9 - - 0.0
30/03:00pm 11.0 9.1 7.7 80 1.7 NW 7 11 4 6 - - 0.0
30/02:30pm 10.5 8.1 6.8 78 1.9 WNW 9 15 5 8 - - 0.0
30/02:00pm 10.6 8.6 7.1 79 1.8 W 7 15 4 8 - - 0.0
30/01:30pm 11.0 7.8 6.9 76 2.1 W 13 20 7 11 - - 0.0
30/01:00pm 11.8 8.9 6.3 69 2.8 W 11 24 6 13 - - 0.0
30/12:30pm 11.6 8.3 6.5 71 2.6 W 13 26 7 14 - - 0.0
30/12:00pm 10.6 6.9 6.4 75 2.1 W 15 24 8 13 - - 0.0
30/11:30am 10.4 7.1 6.4 76 2.0 W 13 26 7 14 - - 0.0
30/11:00am 9.9 6.5 5.9 76 2.0 W 13 24 7 13 - - 0.0
30/10:30am 9.3 6.1 5.1 75 2.0 W 11 20 6 11 - - 0.0
30/10:00am 9.2 6.3 4.8 74 2.1 W 9 19 5 10 - - 0.0
30/09:30am 8.2 5.4 5.1 81 1.5 WSW 9 19 5 10 - - 0.0
30/09:00am 8.0 5.8 6.3 89 0.8 W 7 13 4 7 - - 0.2
30/08:30am 7.7 5.6 6.5 92 0.6 W 7 11 4 6 - - 0.2
30/08:00am 7.4 5.3 5.9 90 0.7 W 6 11 3 6 - - 0.2
30/07:30am 7.1 5.1 6.4 95 0.3 W 6 9 3 5 - - 0.2
30/07:00am 6.9 4.6 5.7 92 0.6 W 7 13 4 7 - - 0.2
30/06:30am 6.8 4.6 5.1 89 0.8 W 6 11 3 6 - - 0.2
30/06:00am 6.8 4.4 5.3 90 0.7 WNW 7 13 4 7 - - 0.2
30/05:30am 6.8 4.7 5.7 93 0.5 WNW 6 9 3 5 - - 0.2
30/05:00am 7.1 4.8 5.6 90 0.7 W 7 13 4 7 - - 0.2
30/04:30am 7.1 4.4 5.4 89 0.8 W 9 15 5 8 - - 0.2
30/04:00am 7.2 4.8 5.2 87 0.9 W 7 15 4 8 - - 0.2
30/03:30am 7.3 4.9 5.4 88 0.9 W 7 17 4 9 - - 0.2
30/03:00am 7.2 5.0 6.0 92 0.6 WNW 7 13 4 7 - - 0.2
30/02:30am 7.4 5.1 5.9 90 0.7 WNW 7 11 4 6 - - 0.2
30/02:00am 7.4 5.1 5.7 89 0.8 WNW 7 13 4 7 - - 0.2
30/01:30am 7.4 5.2 6.0 91 0.7 W 7 11 4 6 - - 0.2
30/01:00am 7.1 5.4 5.7 91 0.7 W 4 7 2 4 - - 0.2
30/12:30am 7.5 5.8 6.1 91 0.7 W 4 9 2 5 - - 0.2
30/12:00am 7.4 6.1 6.2 92 0.6 W 2 9 1 5 - - 0.2
 
Date/Time
EST
Temp
°C
App
Temp
°C
Dew
Point
Rel
Hum
%
Delta-T
°C
Wind Press
QNH
hPa
Press
MSL
hPa
Rain
since 9 am
mm
Dir
 
Spd
km/h
Gust
km/h
Spd
kts
Gust
kts
29/11:30pm 7.5 6.3 6.4 93 0.5 W 2 4 1 2 - - 0.2
29/11:00pm 7.4 6.6 6.5 94 0.4 CALM 0 0 0 0 - - 0.2
29/10:30pm 7.3 6.5 6.6 95 0.3 CALM 0 0 0 0 - - 0.2
29/10:00pm 7.3 6.6 7.0 98 0.1 CALM 0 4 0 2 - - 0.2
29/09:30pm 6.6 5.8 6.3 98 0.1 CALM 0 0 0 0 - - 0.2
29/09:00pm 6.8 5.9 6.2 96 0.3 CALM 0 0 0 0 - - 0.2
29/08:30pm 6.9 6.1 6.5 97 0.2 CALM 0 0 0 0 - - 0.2
29/08:00pm 7.2 6.4 6.6 96 0.3 CALM 0 2 0 1 - - 0.2
29/07:30pm 6.8 5.9 6.1 95 0.3 CALM 0 0 0 0 - - 0.2
29/07:00pm 7.8 6.7 6.7 93 0.5 S 2 4 1 2 - - 0.2
29/06:30pm 9.1 8.3 8.3 95 0.4 W 2 9 1 5 - - 0.2
29/06:00pm 9.4 8.0 8.8 96 0.3 WSW 6 9 3 5 - - 0.2
29/05:30pm 10.0 9.5 9.5 97 0.3 W 2 6 1 3 - - 0.2
29/05:00pm 10.2 9.4 9.6 96 0.3 WNW 4 7 2 4 - - 0.2
29/04:30pm 10.4 9.2 9.5 94 0.5 WNW 6 9 3 5 - - 0.2
29/04:00pm 10.8 9.4 9.7 93 0.6 W 7 13 4 7 - - 0.2
29/03:30pm 10.6 9.3 10.0 96 0.3 W 7 17 4 9 - - 0.2
29/03:00pm 10.7 9.4 9.9 95 0.4 W 7 13 4 7 - - 0.2
29/02:30pm 10.8 9.1 10.0 95 0.4 WNW 9 17 5 9 - - 0.2
29/02:00pm 10.8 9.2 10.2 96 0.3 WNW 9 22 5 12 - - 0.2
29/01:30pm 10.7 9.1 10.2 97 0.3 WNW 9 19 5 10 - - 0.2
29/01:00pm 10.7 8.7 10.2 97 0.3 W 11 19 6 10 - - 0.2
29/12:30pm 10.4 9.2 10.2 99 0.1 WNW 7 17 4 9 - - 0.2
29/12:00pm 10.4 8.9 10.4 100 0.0 WNW 9 19 5 10 - - 0.2
29/11:30am 10.1 7.7 10.1 100 0.0 WNW 13 24 7 13 - - 0.2
29/11:00am 10.1 8.5 10.1 100 0.0 WNW 9 20 5 11 - - 0.2
29/10:30am 9.9 7.8 9.9 100 0.0 WNW 11 28 6 15 - - 0.2
29/10:00am 9.5 6.9 9.5 100 0.0 W 13 26 7 14 - - 0.2
29/09:30am 9.4 6.8 9.4 100 0.0 W 13 28 7 15 - - 0.2
29/09:00am 9.2 6.6 9.2 100 0.0 W 13 26 7 14 - - 2.8
29/08:30am 9.2 6.6 9.2 100 0.0 W 13 26 7 14 - - 2.6
29/08:00am 9.2 6.6 9.2 100 0.0 WNW 13 28 7 15 - - 2.4
29/07:30am 9.2 6.6 9.2 100 0.0 WNW 13 26 7 14 - - 2.2
29/07:00am 9.2 6.2 9.2 100 0.0 WNW 15 35 8 19 - - 2.0
29/06:30am 9.3 5.9 9.3 100 0.0 NW 17 30 9 16 - - 1.8
29/06:00am 9.3 6.3 9.3 100 0.0 NW 15 30 8 16 - - 1.8
29/05:30am 9.4 6.4 9.4 100 0.0 WNW 15 32 8 17 - - 1.4
29/05:00am 9.4 6.4 9.4 100 0.0 NW 15 30 8 16 - - 1.4
29/04:30am 9.3 5.6 9.3 100 0.0 NW 19 41 10 22 - - 1.4
29/04:00am 9.3 6.3 9.3 100 0.0 NW 15 32 8 17 - - 1.4
29/03:30am 9.3 6.3 9.3 100 0.0 NW 15 30 8 16 - - 1.4
29/03:00am 9.4 6.0 9.3 99 0.1 NW 17 28 9 15 - - 1.4
29/02:30am 9.6 6.6 9.1 97 0.3 NW 15 26 8 14 - - 1.4
29/02:00am 9.4 6.4 9.3 99 0.1 NW 15 24 8 13 - - 1.4
29/01:30am 9.2 6.2 9.1 99 0.1 NW 15 24 8 13 - - 1.4
29/01:00am 9.1 6.4 9.0 99 0.1 NW 13 24 7 13 - - 1.4
29/12:30am 9.2 6.9 9.1 99 0.1 NW 11 19 6 10 - - 1.4
29/12:00am 9.5 6.9 9.2 98 0.2 NW 13 19 7 10 - - 1.2
 
Date/Time
EST
Temp
°C
App
Temp
°C
Dew
Point
Rel
Hum
%
Delta-T
°C
Wind Press
QNH
hPa
Press
MSL
hPa
Rain
since 9 am
mm
Dir
 
Spd
km/h
Gust
km/h
Spd
kts
Gust
kts
28/11:30pm 9.4 7.1 9.1 98 0.2 NW 11 19 6 10 - - 1.2
28/11:00pm 9.5 7.1 8.6 94 0.5 NW 11 19 6 10 - - 1.0
28/10:30pm 9.8 7.6 9.2 96 0.3 NW 11 19 6 10 - - 1.0
28/10:00pm 9.5 7.3 9.4 99 0.1 NW 11 20 6 11 - - 1.0
28/09:30pm 9.5 7.7 9.4 99 0.1 NW 9 15 5 8 - - 1.0
28/09:00pm 9.5 6.9 9.4 99 0.1 NNW 13 19 7 10 - - 1.0
28/08:30pm 9.4 7.6 9.3 99 0.1 NNW 9 17 5 9 - - 1.0
28/08:00pm 9.6 7.8 9.5 99 0.1 NW 9 17 5 9 - - 1.0
28/07:30pm 9.6 8.1 9.3 98 0.2 NW 7 13 4 7 - - 1.0
28/07:00pm 9.7 8.5 9.4 98 0.2 NW 6 11 3 6 - - 1.0
28/06:30pm 9.7 8.5 9.4 98 0.2 NW 6 9 3 5 - - 1.0
28/06:00pm 9.7 8.5 9.4 98 0.2 NW 6 9 3 5 - - 1.0
28/05:30pm 9.6 8.1 9.1 97 0.3 NW 7 13 4 7 - - 1.0
28/05:00pm 10.1 9.0 9.8 98 0.2 NW 6 11 3 6 - - 1.0
28/04:30pm 10.2 9.5 9.9 98 0.2 NW 4 9 2 5 - - 1.0
28/04:00pm 10.3 9.2 10.0 98 0.2 WNW 6 11 3 6 - - 1.0
28/03:30pm 10.4 9.3 9.9 97 0.3 WNW 6 13 3 7 - - 1.0
28/03:00pm 10.5 8.9 10.2 98 0.2 W 9 19 5 10 - - 1.0
28/02:30pm 10.3 8.7 10.3 100 0.0 WNW 9 20 5 11 - - 1.0
28/02:00pm 10.1 8.5 10.1 100 0.0 NW 9 13 5 7 - - 1.0
28/01:30pm 9.9 7.8 9.9 100 0.0 NW 11 22 6 12 - - 1.0
28/01:00pm 10.0 8.3 10.0 100 0.0 NW 9 17 5 9 - - 1.0
28/12:30pm 9.7 8.5 9.6 99 0.1 WNW 6 11 3 6 - - 1.0
28/12:00pm 9.5 8.2 9.2 98 0.2 NW 6 11 3 6 - - 0.8
28/11:30am 9.8 8.4 9.0 95 0.4 NW 6 9 3 5 - - 0.4
28/11:00am 10.9 9.3 8.8 87 1.1 WNW 7 11 4 6 - - 0.0
28/10:30am 11.3 9.8 9.0 86 1.2 NW 7 13 4 7 - - 0.0
28/10:00am 11.4 10.1 9.1 86 1.2 NW 6 11 3 6 - - 0.0
28/09:30am 10.4 8.2 7.8 84 1.3 NW 9 13 5 7 - - 0.0
28/09:00am 9.7 7.8 6.8 82 1.5 NW 6 11 3 6 - - 0.0

Other Formats:

Comma delimited format used in spreadsheet applications
http://www.bom.gov.au/fwo/IDN60801/IDN60801.94754.axf

JavaScript Object Notation format (JSON) in row-major order
http://www.bom.gov.au/fwo/IDN60801/IDN60801.94754.json